createdAt,value
2019-02-16T00:02:26.730Z,40.40
2019-02-16T00:04:56.941Z,40.50
2019-02-16T00:07:26.965Z,40.60
2019-02-16T00:09:57.140Z,40.70
2019-02-16T00:12:27.131Z,40.80
2019-02-16T00:14:57.115Z,40.60
2019-02-16T00:17:27.239Z,40.60
2019-02-16T00:19:57.263Z,40.50
2019-02-16T00:22:28.500Z,40.70
2019-02-16T00:24:58.543Z,40.70
2019-02-16T00:27:29.534Z,40.60
2019-02-16T00:30:00.581Z,40.80
2019-02-16T00:32:30.638Z,40.90
2019-02-16T00:35:00.640Z,40.90
2019-02-16T00:37:30.465Z,41.00
2019-02-16T00:40:00.473Z,41.20
2019-02-16T00:42:30.694Z,41.20
2019-02-16T00:45:00.946Z,41.30
2019-02-16T00:47:32.437Z,41.40
2019-02-16T00:50:02.397Z,41.30
2019-02-16T00:52:32.458Z,41.20
2019-02-16T00:55:02.414Z,41.40
2019-02-16T00:57:32.408Z,41.30
2019-02-16T01:00:02.343Z,42.00
2019-02-16T01:02:34.273Z,41.30
2019-02-16T01:05:04.793Z,41.30
2019-02-16T01:07:34.765Z,41.50
2019-02-16T01:10:05.275Z,41.60
2019-02-16T01:12:35.417Z,41.50
2019-02-16T01:15:07.570Z,41.60
2019-02-16T01:17:37.868Z,41.70
2019-02-16T01:20:10.793Z,41.70
2019-02-16T01:22:40.881Z,41.70
2019-02-16T01:25:10.795Z,41.60
2019-02-16T01:27:40.599Z,41.60
2019-02-16T01:30:11.279Z,41.50
2019-02-16T01:32:41.606Z,41.60
2019-02-16T01:35:11.625Z,41.60
2019-02-16T01:37:41.613Z,41.60
2019-02-16T01:40:11.670Z,41.60
2019-02-16T01:42:42.697Z,41.70
2019-02-16T01:45:12.764Z,41.60
2019-02-16T01:47:42.730Z,41.60
2019-02-16T01:50:12.829Z,41.60
2019-02-16T01:52:42.866Z,41.70
2019-02-16T01:55:13.919Z,41.60
2019-02-16T01:57:43.906Z,41.60
2019-02-16T02:00:13.815Z,41.70
2019-02-16T02:02:43.961Z,41.70
2019-02-16T02:05:14.282Z,41.70
2019-02-16T02:07:44.690Z,41.80
2019-02-16T02:10:14.732Z,41.90
2019-02-16T02:12:44.713Z,41.80
2019-02-16T02:15:14.864Z,41.80
2019-02-16T02:17:44.938Z,41.90
2019-02-16T02:20:15.086Z,42.50
2019-02-16T02:22:45.476Z,41.90
2019-02-16T02:25:15.298Z,41.90
2019-02-16T02:27:45.154Z,42.00
2019-02-16T02:30:15.172Z,42.10
2019-02-16T02:32:45.142Z,42.20
2019-02-16T02:35:15.169Z,42.10
2019-02-16T02:37:45.223Z,42.70
2019-02-16T02:40:15.158Z,42.10
2019-02-16T02:42:45.331Z,41.90
2019-02-16T02:45:15.412Z,42.50
2019-02-16T02:47:45.322Z,42.40
2019-02-16T02:50:15.332Z,43.10
2019-02-16T02:52:45.273Z,42.50
2019-02-16T02:55:15.209Z,42.40
2019-02-16T02:57:45.735Z,42.60
2019-02-16T03:00:15.834Z,42.60
2019-02-16T03:02:45.877Z,42.60
2019-02-16T03:05:16.190Z,42.60
2019-02-16T03:07:46.140Z,42.90
2019-02-16T03:10:16.109Z,42.80
2019-02-16T03:12:46.737Z,42.80
2019-02-16T03:15:17.102Z,43.00
2019-02-16T03:17:47.067Z,43.00
2019-02-16T03:20:17.093Z,43.00
2019-02-16T03:23:11.814Z,43.10
2019-02-16T03:25:43.722Z,43.20
2019-02-16T03:28:40.878Z,43.20
2019-02-16T03:31:51.401Z,43.30
2019-02-16T03:34:25.417Z,43.10
2019-02-16T03:37:31.411Z,43.00
2019-02-16T03:40:01.690Z,43.20
2019-02-16T03:42:31.710Z,43.20
2019-02-16T03:45:01.760Z,43.30
2019-02-16T03:47:32.095Z,43.30
2019-02-16T03:50:02.443Z,43.30
2019-02-16T03:52:32.387Z,44.10
2019-02-16T03:55:02.344Z,43.50
2019-02-16T03:57:32.309Z,43.50
2019-02-16T04:00:02.375Z,43.30
2019-02-16T04:02:33.557Z,43.30
2019-02-16T04:05:03.654Z,43.30
2019-02-16T04:07:33.685Z,43.90
2019-02-16T04:10:03.632Z,43.20
2019-02-16T04:12:33.502Z,43.20
2019-02-16T04:15:03.545Z,43.20
2019-02-16T04:17:34.503Z,43.20
2019-02-16T04:20:04.811Z,43.20
2019-02-16T04:22:34.942Z,43.20
2019-02-16T04:25:05.122Z,43.10
2019-02-16T04:27:35.351Z,43.10
2019-02-16T04:30:05.476Z,43.10
2019-02-16T04:32:35.596Z,43.20
2019-02-16T04:35:05.781Z,43.00
2019-02-16T04:37:36.277Z,43.10
2019-02-16T04:40:06.338Z,43.10
2019-02-16T04:42:36.584Z,43.00
2019-02-16T04:45:06.656Z,43.20
2019-02-16T04:47:36.701Z,43.20
2019-02-16T04:50:06.707Z,43.20
2019-02-16T04:52:36.772Z,43.30
2019-02-16T04:55:07.867Z,43.40
2019-02-16T04:57:37.990Z,43.40
2019-02-16T05:00:08.751Z,43.30
2019-02-16T05:02:38.658Z,44.00
2019-02-16T05:05:08.848Z,43.40
2019-02-16T05:07:39.164Z,43.30
2019-02-16T05:10:09.290Z,43.40
2019-02-16T05:12:39.775Z,43.50
2019-02-16T05:15:09.822Z,43.50
2019-02-16T05:17:39.796Z,44.30
2019-02-16T05:20:09.647Z,43.60
2019-02-16T05:22:44.701Z,43.80
2019-02-16T05:25:11.017Z,43.80
2019-02-16T05:27:41.010Z,43.80
2019-02-16T05:30:11.061Z,43.80
2019-02-16T05:32:41.020Z,43.90
2019-02-16T05:35:11.014Z,44.00
2019-02-16T05:37:41.313Z,44.00
2019-02-16T05:40:11.312Z,43.90
2019-02-16T05:42:41.316Z,43.90
2019-02-16T05:45:11.511Z,44.00
2019-02-16T05:47:41.326Z,44.10
2019-02-16T05:50:11.378Z,44.10
2019-02-16T05:52:41.256Z,44.10
2019-02-16T05:55:11.591Z,44.10
2019-02-16T05:57:42.447Z,44.10
2019-02-16T06:00:14.481Z,44.10
2019-02-16T06:02:45.044Z,44.30
2019-02-16T06:05:18.672Z,44.10
2019-02-16T06:07:48.709Z,44.00
2019-02-16T06:10:19.267Z,44.00
2019-02-16T06:12:50.303Z,44.00
2019-02-16T06:15:20.308Z,44.10
2019-02-16T06:17:50.242Z,44.10
2019-02-16T06:20:20.218Z,44.10
2019-02-16T06:22:50.292Z,44.10
2019-02-16T06:25:20.638Z,44.10
2019-02-16T06:27:50.699Z,44.10
2019-02-16T06:30:20.705Z,44.10
2019-02-16T06:32:50.716Z,44.10
2019-02-16T06:35:54.996Z,44.00
2019-02-16T06:38:25.048Z,44.10
2019-02-16T06:40:55.093Z,44.60
2019-02-16T06:43:26.873Z,44.80
2019-02-16T06:45:56.855Z,44.70
2019-02-16T06:48:26.779Z,44.60
2019-02-16T06:50:56.861Z,44.60
2019-02-16T06:53:26.745Z,44.60
2019-02-16T06:56:04.174Z,44.60
2019-02-16T06:58:34.061Z,44.60
2019-02-16T07:01:04.024Z,44.50
2019-02-16T07:03:34.051Z,45.10
2019-02-16T07:06:04.086Z,44.40
2019-02-16T07:08:34.527Z,44.30
2019-02-16T07:11:04.479Z,44.30
2019-02-16T07:13:34.787Z,44.30
2019-02-16T07:16:22.648Z,44.30
2019-02-16T07:18:58.379Z,44.40
2019-02-16T07:21:28.340Z,44.50
2019-02-16T07:23:58.464Z,44.70
2019-02-16T07:26:28.599Z,45.00
2019-02-16T07:28:58.531Z,45.00
2019-02-16T07:31:28.449Z,45.00
2019-02-16T07:33:58.371Z,45.10
2019-02-16T07:36:28.686Z,45.20
2019-02-16T07:38:59.851Z,45.10
2019-02-16T07:41:30.993Z,45.40
2019-02-16T07:44:24.407Z,45.30
2019-02-16T07:47:00.867Z,45.20
2019-02-16T07:49:39.996Z,45.30
2019-02-16T07:52:36.562Z,45.40
2019-02-16T07:55:21.156Z,45.20
2019-02-16T07:58:16.514Z,45.20
2019-02-16T08:01:04.614Z,45.10
2019-02-16T08:03:46.824Z,45.30
2019-02-16T08:06:43.029Z,45.50
2019-02-16T08:09:22.488Z,45.40
2019-02-16T08:12:04.314Z,45.40
2019-02-16T08:14:55.876Z,45.40
2019-02-16T08:17:44.872Z,45.40
2019-02-16T08:20:36.909Z,45.50
2019-02-16T08:23:14.345Z,45.50
2019-02-16T08:26:06.123Z,45.30
2019-02-16T08:28:56.447Z,45.30
2019-02-16T08:31:35.360Z,45.30
2019-02-16T08:34:24.411Z,45.30
2019-02-16T08:37:13.505Z,45.40
2019-02-16T08:40:03.014Z,45.30
2019-02-16T08:42:42.837Z,45.30
2019-02-16T08:45:50.208Z,45.30
2019-02-16T08:48:47.883Z,45.30
2019-02-16T08:51:28.514Z,45.30
2019-02-16T08:54:17.614Z,45.30
2019-02-16T08:57:16.196Z,45.30
2019-02-16T09:00:05.207Z,45.20
2019-02-16T09:02:46.131Z,45.20
2019-02-16T09:05:22.519Z,45.10
2019-02-16T09:08:10.542Z,45.10
2019-02-16T09:11:00.914Z,45.10
2019-02-16T09:13:47.070Z,45.00
2019-02-16T09:16:38.314Z,45.00
2019-02-16T09:19:16.291Z,44.90
2019-02-16T09:22:17.848Z,44.90
2019-02-16T09:25:05.784Z,44.80
2019-02-16T09:27:53.858Z,44.80
2019-02-16T09:30:55.239Z,44.70
2019-02-16T09:33:44.785Z,44.80
2019-02-16T09:36:30.935Z,44.60
2019-02-16T09:39:20.912Z,44.60
2019-02-16T09:42:21.229Z,44.50
2019-02-16T09:45:16.224Z,44.40
2019-02-16T09:47:56.299Z,44.80
2019-02-16T09:50:41.445Z,44.10
2019-02-16T09:53:46.644Z,44.00
2019-02-16T09:56:42.701Z,44.00
2019-02-16T09:59:32.152Z,43.90
2019-02-16T10:02:27.665Z,43.80
2019-02-16T10:05:12.428Z,43.90
2019-02-16T10:08:28.106Z,44.00
2019-02-16T10:11:25.473Z,44.70
2019-02-16T10:14:09.763Z,45.20
2019-02-16T10:17:04.731Z,45.10
2019-02-16T10:19:53.636Z,44.80
2019-02-16T10:22:50.069Z,44.30
2019-02-16T10:26:01.644Z,42.40
2019-02-16T10:28:50.879Z,41.40
2019-02-16T10:31:49.026Z,40.70
2019-02-16T10:34:45.769Z,39.40
2019-02-16T10:37:57.038Z,37.30
2019-02-16T10:40:57.446Z,35.90
2019-02-16T10:43:53.950Z,35.10
2019-02-16T10:47:03.551Z,34.10
2019-02-16T10:49:56.217Z,33.40
2019-02-16T10:53:06.052Z,32.70
2019-02-16T10:56:23.583Z,31.90
2019-02-16T10:59:09.154Z,31.20
2019-02-16T11:02:03.761Z,31.30
2019-02-16T11:04:53.635Z,30.50
2019-02-16T11:07:48.321Z,29.90
2019-02-16T11:10:34.876Z,29.10
2019-02-16T11:13:18.990Z,28.20
2019-02-16T11:16:27.106Z,27.50
2019-02-16T11:19:20.266Z,27.40
2019-02-16T11:22:06.284Z,27.80
2019-02-16T11:25:06.103Z,27.00
2019-02-16T11:28:13.184Z,27.00
2019-02-16T11:31:04.500Z,26.90
2019-02-16T11:34:15.355Z,26.40
2019-02-16T11:37:16.913Z,26.60
2019-02-16T11:40:13.862Z,26.40
2019-02-16T11:43:05.828Z,26.30
2019-02-16T11:46:04.688Z,26.20
2019-02-16T11:48:58.975Z,25.60
2019-02-16T11:51:53.774Z,25.70
2019-02-16T11:54:49.495Z,25.90
2019-02-16T11:57:41.741Z,25.70
2019-02-16T12:00:40.340Z,25.80
2019-02-16T12:03:38.397Z,25.50
2019-02-16T12:06:28.793Z,25.60
2019-02-16T12:09:19.291Z,25.80
2019-02-16T12:12:09.276Z,25.90
2019-02-16T12:15:07.803Z,26.20
2019-02-16T12:18:00.309Z,25.90
2019-02-16T12:20:54.595Z,26.00
2019-02-16T12:23:48.672Z,25.60
2019-02-16T12:26:47.057Z,25.70
2019-02-16T12:29:37.448Z,25.90
2019-02-16T12:32:36.148Z,25.90
2019-02-16T12:35:33.094Z,25.70
2019-02-16T12:38:30.354Z,25.80
2019-02-16T12:41:22.886Z,25.90
2019-02-16T12:44:08.992Z,25.90
2019-02-16T12:46:55.278Z,25.20
2019-02-16T12:49:55.298Z,25.60
2019-02-16T12:52:56.157Z,25.60
2019-02-16T12:55:53.192Z,26.00
2019-02-16T12:58:47.083Z,25.20
2019-02-16T13:01:49.361Z,25.40
2019-02-16T13:04:52.223Z,25.30
2019-02-16T13:07:52.456Z,25.40
2019-02-16T13:10:38.270Z,25.10
2019-02-16T13:13:33.571Z,25.20
2019-02-16T13:16:22.430Z,24.90
2019-02-16T13:19:23.070Z,24.80
2019-02-16T13:22:15.625Z,25.10
2019-02-16T13:25:25.873Z,25.00
2019-02-16T13:28:27.386Z,25.10
2019-02-16T13:31:25.161Z,25.20
2019-02-16T13:34:18.937Z,24.90
2019-02-16T13:37:25.651Z,24.70
2019-02-16T13:40:22.907Z,24.90
2019-02-16T13:43:16.170Z,24.90
2019-02-16T13:46:09.740Z,24.70
2019-02-16T13:49:00.750Z,24.60
2019-02-16T13:51:59.237Z,24.60
2019-02-16T13:54:52.007Z,24.60
2019-02-16T13:57:46.397Z,24.50
2019-02-16T14:00:34.073Z,24.60
2019-02-16T14:03:32.802Z,24.50
2019-02-16T14:06:36.303Z,24.60
2019-02-16T14:09:21.679Z,24.40
2019-02-16T14:12:12.715Z,24.50
2019-02-16T14:15:09.375Z,24.50
2019-02-16T14:17:51.638Z,24.30
2019-02-16T14:20:52.608Z,24.40
2019-02-16T14:23:37.593Z,24.50
2019-02-16T14:26:17.292Z,24.60
2019-02-16T14:28:53.497Z,24.80
2019-02-16T14:31:28.851Z,24.80
2019-02-16T14:34:08.313Z,24.80
2019-02-16T14:36:55.458Z,24.70
2019-02-16T14:39:32.550Z,24.90
2019-02-16T14:42:03.973Z,25.10
2019-02-16T14:44:53.242Z,25.10
2019-02-16T14:47:23.386Z,25.10
2019-02-16T14:49:53.352Z,25.20
2019-02-16T14:52:23.465Z,25.10
2019-02-16T14:54:53.738Z,25.10
2019-02-16T14:57:23.860Z,25.20
2019-02-16T14:59:53.919Z,25.30
2019-02-16T15:02:24.023Z,25.40
2019-02-16T15:04:53.996Z,25.40
2019-02-16T15:07:23.985Z,25.40
2019-02-16T15:09:53.974Z,25.40
2019-02-16T15:12:24.322Z,25.50
2019-02-16T15:14:54.401Z,25.50
2019-02-16T15:17:24.564Z,25.60
2019-02-16T15:19:54.784Z,25.70
2019-02-16T15:22:24.910Z,25.80
2019-02-16T15:24:55.363Z,25.90
2019-02-16T15:27:25.389Z,26.00
2019-02-16T15:29:55.469Z,26.10
2019-02-16T15:32:25.931Z,26.30
2019-02-16T15:34:56.265Z,26.40
2019-02-16T15:37:26.382Z,26.40
2019-02-16T15:39:56.778Z,26.50
2019-02-16T15:42:27.324Z,26.60
2019-02-16T15:44:57.350Z,26.60
2019-02-16T15:47:29.953Z,26.80
2019-02-16T15:50:00.333Z,26.80
2019-02-16T15:52:30.317Z,26.90
2019-02-16T15:55:00.713Z,26.90
2019-02-16T15:57:30.940Z,27.10
2019-02-16T16:00:01.490Z,27.20
2019-02-16T16:02:31.682Z,27.20
2019-02-16T16:05:01.757Z,27.20
2019-02-16T16:07:31.965Z,27.40
2019-02-16T16:10:30.153Z,27.20
2019-02-16T16:13:29.843Z,27.10
2019-02-16T16:16:12.571Z,27.20
2019-02-16T16:19:01.479Z,27.30
2019-02-16T16:21:49.324Z,27.40
2019-02-16T16:24:41.603Z,27.30
2019-02-16T16:27:33.301Z,27.30
2019-02-16T16:30:25.079Z,27.40
2019-02-16T16:33:14.108Z,27.50
2019-02-16T16:36:02.518Z,27.50
2019-02-16T16:38:54.173Z,27.60
2019-02-16T16:41:42.051Z,27.60
2019-02-16T16:44:36.763Z,27.70
2019-02-16T16:47:24.525Z,27.80
2019-02-16T16:50:23.141Z,27.80
2019-02-16T16:53:15.203Z,27.90
2019-02-16T16:55:58.305Z,28.00
2019-02-16T16:58:47.222Z,28.00
2019-02-16T17:01:51.848Z,28.10
2019-02-16T17:04:34.831Z,28.20
2019-02-16T17:07:27.023Z,28.40
2019-02-16T17:10:14.665Z,28.30
2019-02-16T17:13:02.870Z,28.40
2019-02-16T17:15:54.885Z,28.60
2019-02-16T17:21:40.535Z,28.70
2019-02-16T17:24:28.533Z,28.70
2019-02-16T17:27:21.279Z,28.80
2019-02-16T17:30:04.559Z,28.80
2019-02-16T17:32:59.637Z,28.90
2019-02-16T17:35:44.008Z,29.10
2019-02-16T17:38:51.631Z,29.00
2019-02-16T17:41:43.744Z,29.10
2019-02-16T17:44:32.805Z,29.20
2019-02-16T17:47:21.258Z,29.30
2019-02-16T17:50:13.256Z,29.40
2019-02-16T17:53:02.771Z,29.40
2019-02-16T17:55:41.758Z,29.40
2019-02-16T17:58:35.810Z,29.40
2019-02-16T18:01:18.186Z,29.60
2019-02-16T18:04:07.353Z,29.70
2019-02-16T18:06:57.888Z,29.70
2019-02-16T18:09:47.329Z,29.80
2019-02-16T18:12:48.894Z,29.90
2019-02-16T18:15:53.065Z,30.00
2019-02-16T18:18:42.085Z,29.90
2019-02-16T18:24:51.054Z,30.10
2019-02-16T18:27:37.940Z,30.70
2019-02-16T18:30:36.578Z,30.00
2019-02-16T18:33:20.418Z,30.20
2019-02-16T18:36:16.578Z,30.20
2019-02-16T18:39:04.445Z,30.20
2019-02-16T18:41:55.561Z,30.20
2019-02-16T18:44:44.691Z,30.20
2019-02-16T18:47:37.416Z,30.40
2019-02-16T18:50:38.437Z,30.40
2019-02-16T18:53:32.149Z,30.50
2019-02-16T18:56:22.572Z,30.50
2019-02-16T18:59:01.313Z,30.40
2019-02-16T19:01:41.814Z,30.40
2019-02-16T19:04:29.973Z,30.50
2019-02-16T19:07:22.329Z,30.50
2019-02-16T19:10:09.271Z,30.60
2019-02-16T19:13:05.614Z,30.70
2019-02-16T19:15:44.309Z,30.70
2019-02-16T19:18:45.736Z,30.80
2019-02-16T19:21:50.453Z,30.90
2019-02-16T19:24:45.766Z,30.90
2019-02-16T19:27:41.829Z,31.00
2019-02-16T19:30:29.474Z,31.00
2019-02-16T19:33:30.459Z,31.10
2019-02-16T19:36:18.299Z,31.00
2019-02-16T19:39:10.199Z,31.00
2019-02-16T19:41:59.882Z,31.20
2019-02-16T19:44:54.607Z,31.20
2019-02-16T19:47:41.351Z,31.10
2019-02-16T19:50:42.248Z,31.20
2019-02-16T19:53:41.351Z,31.30
2019-02-16T19:56:21.077Z,31.30
2019-02-16T19:59:16.418Z,31.30
2019-02-16T20:02:04.362Z,31.40
2019-02-16T20:04:52.221Z,31.50
2019-02-16T20:07:47.517Z,31.40
2019-02-16T20:10:36.475Z,31.50
2019-02-16T20:13:21.974Z,31.40
2019-02-16T20:16:05.822Z,31.50
2019-02-16T20:18:43.894Z,31.60
2019-02-16T20:21:24.508Z,31.60
2019-02-16T20:24:05.050Z,31.60
2019-02-16T20:26:56.860Z,31.70
2019-02-16T20:29:42.567Z,31.70
2019-02-16T20:32:25.454Z,31.70
2019-02-16T20:35:08.757Z,31.80
2019-02-16T20:37:54.891Z,31.90
2019-02-16T20:40:44.417Z,32.00
2019-02-16T20:43:20.379Z,32.00
2019-02-16T20:45:59.604Z,32.00
2019-02-16T20:48:54.671Z,32.10
2019-02-16T20:51:47.147Z,32.20
2019-02-16T20:54:25.663Z,32.20
2019-02-16T20:57:17.496Z,32.20
2019-02-16T21:00:05.379Z,32.30
2019-02-16T21:02:50.463Z,33.30
2019-02-16T21:05:45.475Z,33.30
2019-02-16T21:08:33.236Z,33.50
2019-02-16T21:11:31.462Z,33.30
2019-02-16T21:14:23.405Z,33.50
2019-02-16T21:17:10.978Z,33.50
2019-02-16T21:19:59.188Z,33.60
2019-02-16T21:22:48.068Z,33.60
2019-02-16T21:25:31.606Z,34.40
2019-02-16T21:28:20.832Z,33.80
2019-02-16T21:31:18.251Z,34.00
2019-02-16T21:34:22.863Z,34.60
2019-02-16T21:37:01.772Z,33.80
2019-02-16T21:40:05.733Z,34.00
2019-02-16T21:42:43.155Z,34.10
2019-02-16T21:45:27.981Z,34.20
2019-02-16T21:48:20.154Z,34.30
2019-02-16T21:51:13.302Z,34.30
2019-02-16T21:53:54.704Z,34.40
2019-02-16T21:56:58.966Z,34.50
2019-02-16T21:59:48.557Z,34.70
2019-02-16T22:03:04.996Z,34.70
2019-02-16T22:05:49.939Z,34.80
2019-02-16T22:08:42.218Z,34.80
2019-02-16T22:11:26.611Z,34.90
2019-02-16T22:13:56.627Z,35.00
2019-02-16T22:16:26.761Z,35.10
2019-02-16T22:18:56.936Z,35.30
2019-02-16T22:21:27.368Z,35.40
2019-02-16T22:23:57.490Z,35.60
2019-02-16T22:26:27.408Z,35.50
2019-02-16T22:28:57.515Z,35.60
2019-02-16T22:31:27.604Z,35.70
2019-02-16T22:33:57.726Z,35.80
2019-02-16T22:36:28.220Z,36.00
2019-02-16T22:39:01.344Z,35.90
2019-02-16T22:41:33.127Z,35.90
2019-02-16T22:44:03.249Z,36.10
2019-02-16T22:46:34.493Z,36.20
2019-02-16T22:49:04.688Z,36.10
2019-02-16T22:51:35.596Z,36.50
2019-02-16T22:54:05.636Z,36.50
2019-02-16T22:56:35.694Z,36.40
2019-02-16T22:59:05.673Z,36.50
2019-02-16T23:01:35.795Z,36.90
2019-02-16T23:04:06.354Z,36.80
2019-02-16T23:06:46.788Z,36.80
2019-02-16T23:09:25.925Z,36.80
2019-02-16T23:11:58.152Z,36.80
2019-02-16T23:14:29.670Z,36.80
2019-02-16T23:17:00.255Z,36.90
2019-02-16T23:19:30.268Z,37.00
2019-02-16T23:22:00.806Z,37.10
2019-02-16T23:24:30.865Z,37.10
2019-02-16T23:27:03.280Z,37.20
2019-02-16T23:29:33.334Z,37.30
2019-02-16T23:32:03.392Z,37.40
2019-02-16T23:34:33.539Z,37.40
2019-02-16T23:37:03.927Z,37.50
2019-02-16T23:39:34.298Z,37.60
2019-02-16T23:42:04.630Z,37.80
2019-02-16T23:44:35.034Z,37.80
2019-02-16T23:47:05.364Z,37.90
2019-02-16T23:49:35.384Z,38.00
2019-02-16T23:52:05.731Z,37.90
2019-02-16T23:54:36.043Z,38.10
2019-02-16T23:57:06.097Z,38.20
2019-02-16T23:59:36.411Z,38.30
